Time;durP1;ratioP1;P1;durP2;ratioP2;P2;SDS_P1;SDS_P2;PMS_P1;PMS_P2;Temp;Humidity;BMP_temperature;BMP_pressure;BME280_temperature;BME280_humidity;BME280_pressure;Samples;Min_cycle;Max_cycle;Signal;HPM_P1;HPM_P2
2022/03/01 00:02:17;;;;;;;36.97;15.53;;;-0.10;99.90;;;;;;4425322;32;20189;-71
2022/03/01 00:04:44;;;;;;;30.50;14.03;;;-0.10;99.90;;;;;;4429304;32;20257;-71
2022/03/01 00:07:11;;;;;;;34.77;15.00;;;0.00;99.90;;;;;;4430071;32;20198;-71
2022/03/01 00:09:38;;;;;;;35.17;15.03;;;0.00;99.90;;;;;;4426102;32;20174;-71
2022/03/01 00:12:05;;;;;;;34.73;15.37;;;0.00;99.90;;;;;;4424851;32;20260;-71
2022/03/01 00:14:32;;;;;;;37.87;15.70;;;0.00;99.90;;;;;;4439829;32;20405;-71
2022/03/01 00:16:59;;;;;;;40.67;16.40;;;0.00;99.90;;;;;;4427681;32;20178;-71
2022/03/01 00:19:29;;;;;;;44.03;17.23;;;0.00;99.90;;;;;;4428814;32;20388;-71
2022/03/01 00:21:57;;;;;;;40.53;16.33;;;-0.10;99.90;;;;;;4417004;32;20178;-71
2022/03/01 00:24:24;;;;;;;33.93;16.80;;;-0.10;99.90;;;;;;4427257;32;20571;-71
2022/03/01 00:26:50;;;;;;;36.60;15.80;;;-0.10;99.90;;;;;;4415120;32;20237;-71
2022/03/01 00:29:17;;;;;;;44.43;17.77;;;-0.10;99.90;;;;;;4429511;32;20531;-71
2022/03/01 00:31:44;;;;;;;42.60;17.80;;;-0.10;99.90;;;;;;4427886;32;20233;-71
2022/03/01 00:34:11;;;;;;;39.17;16.67;;;-0.10;99.90;;;;;;4427532;32;20177;-71
2022/03/01 00:36:39;;;;;;;41.53;16.83;;;-0.20;99.90;;;;;;4429523;32;20227;-71
2022/03/01 00:39:07;;;;;;;38.83;17.23;;;-0.20;99.90;;;;;;4449998;32;20181;-71
2022/03/01 00:41:34;;;;;;;44.47;17.47;;;-0.30;99.90;;;;;;4429241;32;20212;-70
2022/03/01 00:44:01;;;;;;;40.63;17.57;;;-0.20;99.90;;;;;;4428548;32;20171;-71
2022/03/01 00:46:28;;;;;;;41.97;18.10;;;-0.20;99.90;;;;;;4427546;32;20231;-71
2022/03/01 00:48:57;;;;;;;41.60;17.73;;;-0.20;99.90;;;;;;4443175;32;20138;-72
2022/03/01 00:51:26;;;;;;;46.67;18.73;;;-0.20;99.90;;;;;;4428063;32;20224;-72
2022/03/01 00:53:54;;;;;;;42.90;17.87;;;-0.20;99.90;;;;;;4441381;32;20143;-71
2022/03/01 00:56:21;;;;;;;45.93;18.10;;;-0.20;99.90;;;;;;4428702;32;20189;-70
2022/03/01 00:58:48;;;;;;;40.47;17.37;;;-0.20;99.90;;;;;;4443259;32;20150;-71
2022/03/01 01:01:15;;;;;;;38.60;17.53;;;-0.30;99.90;;;;;;4426976;32;20254;-71
2022/03/01 01:03:42;;;;;;;39.10;17.17;;;-0.30;99.90;;;;;;4427603;32;20179;-71
2022/03/01 01:06:09;;;;;;;41.57;18.03;;;-0.20;99.90;;;;;;4428339;32;20422;-71
2022/03/01 01:08:36;;;;;;;36.80;17.47;;;-0.30;99.90;;;;;;4427046;32;20192;-71
2022/03/01 01:11:03;;;;;;;39.97;17.20;;;-0.30;99.90;;;;;;4440921;32;20174;-71
2022/03/01 01:13:30;;;;;;;41.70;17.10;;;-0.30;99.90;;;;;;4427362;32;20254;-71
2022/03/01 01:15:58;;;;;;;41.50;17.57;;;-0.40;99.90;;;;;;4426747;32;20193;-70
2022/03/01 01:18:24;;;;;;;38.30;17.33;;;-0.30;99.90;;;;;;4428582;32;20269;-72
2022/03/01 01:20:52;;;;;;;41.70;17.43;;;-0.30;99.90;;;;;;4449285;32;20172;-70
2022/03/01 01:23:19;;;;;;;42.77;17.03;;;-0.40;99.90;;;;;;4426445;32;20547;-72
2022/03/01 01:25:46;;;;;;;38.23;16.60;;;-0.40;99.90;;;;;;4426490;32;20186;-71
2022/03/01 01:28:13;;;;;;;39.43;17.07;;;-0.50;99.90;;;;;;4427877;32;20174;-71
2022/03/01 01:30:40;;;;;;;38.70;17.30;;;-0.60;99.90;;;;;;4441063;32;20154;-71
2022/03/01 01:33:07;;;;;;;41.77;18.47;;;-0.60;99.90;;;;;;4427717;32;20166;-71
2022/03/01 01:35:35;;;;;;;47.83;19.13;;;-0.60;99.90;;;;;;4428265;32;20209;-70
2022/03/01 01:38:03;;;;;;;44.57;18.30;;;-0.70;99.90;;;;;;4415882;32;20201;-71
2022/03/01 01:40:32;;;;;;;45.63;18.93;;;-0.70;99.90;;;;;;4428128;32;20256;-71
2022/03/01 01:42:59;;;;;;;44.07;18.27;;;-0.70;99.90;;;;;;4427727;32;20198;-71
2022/03/01 01:45:27;;;;;;;49.77;19.53;;;-0.70;99.90;;;;;;4426188;32;20166;-71
2022/03/01 01:47:56;;;;;;;48.60;21.03;;;-0.80;99.90;;;;;;4428692;32;20271;-71
2022/03/01 01:50:24;;;;;;;48.20;20.23;;;-0.80;99.90;;;;;;4426847;32;20194;-70
2022/03/01 01:52:53;;;;;;;50.33;21.67;;;-0.80;99.90;;;;;;4435082;32;20233;-70
2022/03/01 01:55:24;;;;;;;52.50;21.37;;;-0.80;99.90;;;;;;4443378;32;20205;-71
2022/03/01 01:57:57;;;;;;;52.83;20.90;;;-0.80;99.90;;;;;;4441862;32;20182;-71
2022/03/01 02:00:24;;;;;;;49.77;21.10;;;-0.80;99.90;;;;;;4442083;32;20142;-71
2022/03/01 02:02:51;;;;;;;49.87;21.03;;;-0.80;99.90;;;;;;4426170;32;20197;-71
2022/03/01 02:05:18;;;;;;;53.30;21.43;;;-0.90;99.90;;;;;;4442036;32;20161;-71
2022/03/01 02:07:49;;;;;;;53.43;21.87;;;-0.90;99.90;;;;;;4440719;32;20174;-71
2022/03/01 02:10:16;;;;;;;49.93;20.07;;;-1.00;99.90;;;;;;4429212;32;20543;-72
2022/03/01 02:12:44;;;;;;;52.03;21.67;;;-1.00;99.90;;;;;;4442880;32;20247;-72
2022/03/01 02:15:12;;;;;;;48.30;21.33;;;-1.00;99.90;;;;;;4441073;32;20189;-72
2022/03/01 02:17:40;;;;;;;49.97;21.30;;;-1.00;99.90;;;;;;4442597;32;20237;-72
2022/03/01 02:20:21;;;;;;;49.67;21.43;;;-1.10;99.90;;;;;;4441764;32;20201;-71
2022/03/01 02:22:54;;;;;;;50.67;21.33;;;-1.10;99.90;;;;;;4457197;32;20189;-71
2022/03/01 02:25:21;;;;;;;50.07;21.17;;;-1.20;99.90;;;;;;4442887;32;20221;-71
2022/03/01 02:27:48;;;;;;;48.73;20.40;;;-1.30;99.90;;;;;;4440659;32;20211;-71
2022/03/01 02:30:15;;;;;;;48.83;19.93;;;-1.30;99.90;;;;;;4440019;32;20216;-72
2022/03/01 02:32:42;;;;;;;50.20;19.40;;;-1.20;99.90;;;;;;4440869;32;20256;-72
2022/03/01 02:35:11;;;;;;;44.80;19.67;;;-1.20;99.90;;;;;;4441990;32;20253;-73
2022/03/01 02:37:39;;;;;;;47.03;19.60;;;-1.30;99.90;;;;;;4437190;32;20535;-71
2022/03/01 02:40:06;;;;;;;42.87;19.20;;;-1.30;99.90;;;;;;4424881;32;20193;-71
2022/03/01 02:42:35;;;;;;;44.33;18.03;;;-1.30;99.90;;;;;;4427098;32;20178;-71
2022/03/01 02:45:07;;;;;;;46.67;19.20;;;-1.40;99.90;;;;;;4425553;32;20194;-71
2022/03/01 02:47:36;;;;;;;40.83;18.50;;;-1.40;99.90;;;;;;4426053;32;20193;-71
2022/03/01 02:50:05;;;;;;;43.83;18.63;;;-1.50;99.90;;;;;;4427609;32;20216;-70
2022/03/01 02:52:33;;;;;;;40.60;17.67;;;-1.50;99.90;;;;;;4439817;32;20150;-71
2022/03/01 02:54:59;;;;;;;46.20;17.70;;;-1.60;99.90;;;;;;4441361;32;20454;-70
2022/03/01 02:57:27;;;;;;;43.67;18.13;;;-1.60;99.90;;;;;;4425398;32;20277;-70
2022/03/01 02:59:55;;;;;;;42.27;17.07;;;-1.60;99.90;;;;;;4439310;32;20393;-71
2022/03/01 03:02:21;;;;;;;41.53;17.13;;;-1.60;99.90;;;;;;4426897;32;20540;-71
2022/03/01 03:04:48;;;;;;;38.63;17.73;;;-1.60;99.90;;;;;;4426968;32;20174;-71
2022/03/01 03:07:15;;;;;;;41.70;16.93;;;-1.60;99.90;;;;;;4445959;32;20174;-71
2022/03/01 03:09:42;;;;;;;40.87;17.03;;;-1.50;99.90;;;;;;4428584;32;20182;-71
2022/03/01 03:12:09;;;;;;;43.77;17.67;;;-1.50;99.90;;;;;;4426738;32;20273;-71
2022/03/01 03:14:36;;;;;;;37.40;15.37;;;-1.60;99.90;;;;;;4440049;32;20195;-71
2022/03/01 03:17:04;;;;;;;37.13;16.53;;;-1.60;99.90;;;;;;4427035;32;20170;-71
2022/03/01 03:19:32;;;;;;;39.43;16.27;;;-1.60;99.90;;;;;;4439595;32;20209;-71
2022/03/01 03:22:00;;;;;;;34.47;15.10;;;-1.60;99.90;;;;;;4426892;32;20182;-71
2022/03/01 03:24:27;;;;;;;35.37;15.83;;;-1.60;99.90;;;;;;4427203;32;20478;-72
2022/03/01 03:26:53;;;;;;;33.23;15.90;;;-1.60;99.90;;;;;;4439665;32;20206;-71
2022/03/01 03:29:21;;;;;;;36.80;15.60;;;-1.60;99.90;;;;;;4427310;32;20241;-72
2022/03/01 03:31:48;;;;;;;34.60;15.20;;;-1.70;99.90;;;;;;4425633;32;20426;-72
2022/03/01 03:34:15;;;;;;;33.00;15.03;;;-1.60;99.90;;;;;;4424965;32;20221;-72
2022/03/01 03:36:43;;;;;;;37.93;16.23;;;-1.60;99.90;;;;;;4427085;32;20178;-72
2022/03/01 03:39:11;;;;;;;36.93;16.53;;;-1.50;99.90;;;;;;4426250;32;20179;-71
2022/03/01 03:41:38;;;;;;;31.67;15.37;;;-1.50;99.90;;;;;;4427158;32;20183;-73
2022/03/01 03:44:06;;;;;;;32.23;15.60;;;-1.60;99.90;;;;;;4440858;32;20212;-73
2022/03/01 03:46:33;;;;;;;37.47;15.90;;;-1.60;99.90;;;;;;4426567;32;20182;-72
2022/03/01 03:49:01;;;;;;;41.63;16.20;;;-1.60;99.90;;;;;;4426349;32;20174;-73
2022/03/01 03:51:28;;;;;;;36.03;15.47;;;-1.70;99.90;;;;;;4428636;32;20198;-73
2022/03/01 03:53:55;;;;;;;36.37;15.53;;;-1.70;99.90;;;;;;4431080;32;20201;-73
2022/03/01 03:56:23;;;;;;;37.87;15.77;;;-1.60;99.90;;;;;;4442216;32;20143;-72
2022/03/01 03:58:50;;;;;;;35.33;14.93;;;-1.60;99.90;;;;;;4429705;32;20190;-73
2022/03/01 04:01:17;;;;;;;39.80;15.17;;;-1.60;99.90;;;;;;4442440;32;20205;-73
2022/03/01 04:03:45;;;;;;;36.93;15.63;;;-1.60;99.90;;;;;;4429624;32;20165;-73
2022/03/01 04:06:12;;;;;;;38.53;16.23;;;-1.60;99.90;;;;;;4443136;32;20193;-73
2022/03/01 04:08:39;;;;;;;35.00;15.80;;;-1.60;99.90;;;;;;4442389;32;20457;-72
2022/03/01 04:11:05;;;;;;;36.73;15.83;;;-1.70;99.90;;;;;;4443672;32;20166;-72
2022/03/01 04:13:33;;;;;;;42.77;16.67;;;-1.70;99.90;;;;;;4429413;32;20189;-72
2022/03/01 04:16:01;;;;;;;44.07;17.47;;;-1.80;99.90;;;;;;4442264;32;20211;-72
2022/03/01 04:18:27;;;;;;;36.70;16.47;;;-1.70;99.90;;;;;;4442206;32;20249;-71
2022/03/01 04:20:55;;;;;;;38.87;16.97;;;-1.80;99.90;;;;;;4428148;32;20193;-73
2022/03/01 04:23:21;;;;;;;36.83;15.90;;;-1.80;99.90;;;;;;4436472;32;20178;-72
2022/03/01 04:25:48;;;;;;;44.43;17.10;;;-1.80;99.90;;;;;;4428601;32;20245;-73
2022/03/01 04:28:15;;;;;;;43.87;17.33;;;-1.80;99.90;;;;;;4429524;32;20518;-72
2022/03/01 04:30:42;;;;;;;41.73;16.73;;;-1.90;99.90;;;;;;4428163;32;20538;-73
2022/03/01 04:33:09;;;;;;;42.10;17.00;;;-1.90;99.90;;;;;;4415850;32;20209;-72
2022/03/01 04:35:36;;;;;;;44.87;18.40;;;-1.80;99.90;;;;;;4441904;32;20191;-73
2022/03/01 04:38:03;;;;;;;45.73;17.83;;;-1.80;99.90;;;;;;4429661;32;20169;-73
2022/03/01 04:40:30;;;;;;;42.33;17.80;;;-1.80;99.90;;;;;;4428498;32;20229;-73
2022/03/01 04:42:57;;;;;;;41.43;18.07;;;-1.80;99.90;;;;;;4427395;32;20205;-72
2022/03/01 04:45:24;;;;;;;38.97;17.63;;;-1.80;99.90;;;;;;4428181;32;20162;-73
2022/03/01 04:47:51;;;;;;;40.23;16.70;;;-1.90;99.90;;;;;;4427262;32;20181;-73
2022/03/01 04:50:18;;;;;;;44.57;18.57;;;-1.90;99.90;;;;;;4442339;32;20146;-73
2022/03/01 04:52:45;;;;;;;43.57;18.40;;;-1.90;99.90;;;;;;4428754;32;20241;-72
2022/03/01 04:55:12;;;;;;;43.27;18.87;;;-1.90;99.90;;;;;;4441637;32;20166;-73
2022/03/01 04:57:39;;;;;;;44.53;18.33;;;-1.90;99.90;;;;;;4429246;32;20196;-73
2022/03/01 05:00:10;;;;;;;44.80;18.63;;;-1.90;99.90;;;;;;4442251;32;20196;-73
2022/03/01 05:02:41;;;;;;;43.77;18.67;;;-1.90;99.90;;;;;;4435195;32;20213;-73
2022/03/01 05:05:10;;;;;;;42.20;17.77;;;-1.90;99.90;;;;;;4428468;32;20216;-73
2022/03/01 05:07:43;;;;;;;42.20;17.63;;;-2.00;99.90;;;;;;4441460;32;20201;-73
2022/03/01 05:10:12;;;;;;;46.93;18.80;;;-2.00;99.90;;;;;;4427237;32;20237;-73
2022/03/01 05:12:52;;;;;;;44.60;18.30;;;-2.00;99.90;;;;;;4441119;32;20209;-74
2022/03/01 05:15:21;;;;;;;45.30;18.60;;;-2.00;99.90;;;;;;4441530;32;20146;-73
2022/03/01 05:17:49;;;;;;;47.60;18.37;;;-2.00;99.90;;;;;;4442336;32;20492;-72
2022/03/01 05:20:17;;;;;;;45.37;19.23;;;-2.00;99.90;;;;;;4428398;32;20229;-72
2022/03/01 05:22:44;;;;;;;45.83;18.50;;;-2.00;99.90;;;;;;4426690;32;20231;-72
2022/03/01 05:25:14;;;;;;;42.60;17.97;;;-2.10;99.90;;;;;;4428324;32;20567;-71
2022/03/01 05:27:43;;;;;;;42.77;18.30;;;-2.10;99.90;;;;;;4428304;32;20204;-72
2022/03/01 05:30:13;;;;;;;42.67;17.17;;;-2.20;99.90;;;;;;4426981;32;20225;-73
2022/03/01 05:32:42;;;;;;;39.97;18.47;;;-2.30;99.90;;;;;;4427614;32;20213;-73
2022/03/01 05:35:11;;;;;;;42.73;17.80;;;-2.30;99.90;;;;;;4440958;32;20161;-72
2022/03/01 05:37:42;;;;;;;46.10;18.00;;;-2.40;99.90;;;;;;4442499;32;20217;-72
2022/03/01 05:40:12;;;;;;;41.47;17.87;;;-2.40;99.90;;;;;;4427664;32;20245;-72
2022/03/01 05:42:41;;;;;;;47.80;18.20;;;-2.40;99.90;;;;;;4428025;32;20210;-72
2022/03/01 05:45:09;;;;;;;37.90;17.63;;;-2.40;99.90;;;;;;4428259;32;20212;-72
2022/03/01 05:47:36;;;;;;;44.63;18.53;;;-2.30;99.90;;;;;;4426004;32;20386;-73
2022/03/01 05:50:03;;;;;;;40.43;18.50;;;-2.30;99.90;;;;;;4428065;32;20477;-73
2022/03/01 05:52:30;;;;;;;41.63;18.47;;;-2.30;99.90;;;;;;4426574;32;20205;-73
2022/03/01 05:54:59;;;;;;;41.87;18.00;;;-2.30;99.90;;;;;;4426286;32;20189;-73
2022/03/01 05:57:28;;;;;;;41.33;18.67;;;-2.20;99.90;;;;;;4428103;32;20200;-72
2022/03/01 05:59:56;;;;;;;44.00;18.33;;;-2.20;99.90;;;;;;4442615;32;20526;-75
2022/03/01 06:02:23;;;;;;;42.63;18.03;;;-2.20;99.90;;;;;;4434606;32;20186;-73
2022/03/01 06:04:52;;;;;;;43.13;18.53;;;-2.10;99.90;;;;;;4427134;32;20178;-72
2022/03/01 06:07:19;;;;;;;44.60;18.67;;;-2.00;99.90;;;;;;4427736;32;20204;-73
2022/03/01 06:09:47;;;;;;;44.77;17.90;;;-2.00;99.90;;;;;;4429651;32;20177;-73
2022/03/01 06:12:14;;;;;;;44.17;19.17;;;-1.90;99.90;;;;;;4434142;32;20248;-72
2022/03/01 06:14:41;;;;;;;50.40;19.70;;;-1.90;99.90;;;;;;4426661;32;20216;-72
2022/03/01 06:17:07;;;;;;;43.20;18.23;;;-1.80;99.90;;;;;;4441539;32;20186;-73
2022/03/01 06:19:35;;;;;;;42.07;18.70;;;-1.80;99.90;;;;;;4427594;32;20197;-73
2022/03/01 06:22:02;;;;;;;41.70;18.13;;;-1.80;99.90;;;;;;4426590;32;20218;-73
2022/03/01 06:24:29;;;;;;;39.27;17.37;;;-1.70;99.90;;;;;;4427588;32;20220;-73
2022/03/01 06:26:56;;;;;;;43.73;19.17;;;-1.70;99.90;;;;;;4427488;32;20248;-73
2022/03/01 06:29:22;;;;;;;43.13;18.57;;;-1.70;99.90;;;;;;4426072;32;20458;-73
2022/03/01 06:31:49;;;;;;;46.13;18.47;;;-1.60;99.90;;;;;;4439711;32;20516;-73
2022/03/01 06:34:16;;;;;;;36.73;17.33;;;-1.50;99.90;;;;;;4425755;32;20198;-73
2022/03/01 06:36:44;;;;;;;41.07;18.50;;;-1.40;99.90;;;;;;4427653;32;20178;-74
2022/03/01 06:39:11;;;;;;;38.13;16.80;;;-1.30;99.90;;;;;;4446946;32;20425;-73
2022/03/01 06:41:38;;;;;;;38.03;16.67;;;-1.20;99.90;;;;;;4428120;32;20253;-74
2022/03/01 06:44:05;;;;;;;37.90;17.13;;;-1.20;99.90;;;;;;4441307;32;20166;-73
2022/03/01 06:46:32;;;;;;;41.27;17.03;;;-1.10;99.90;;;;;;4414297;32;20274;-73
2022/03/01 06:48:59;;;;;;;36.10;16.13;;;-1.10;99.90;;;;;;4425447;32;20171;-72
2022/03/01 06:51:26;;;;;;;36.30;15.90;;;-1.10;99.90;;;;;;4425211;32;20198;-72
2022/03/01 06:53:53;;;;;;;38.27;16.37;;;-1.00;99.90;;;;;;4425251;32;20213;-73
2022/03/01 06:56:19;;;;;;;37.83;15.67;;;-1.00;99.90;;;;;;4441821;32;20433;-73
2022/03/01 06:58:47;;;;;;;38.30;16.70;;;-1.00;99.90;;;;;;4427324;32;20194;-74
2022/03/01 07:01:15;;;;;;;39.07;16.83;;;-0.90;99.90;;;;;;4425235;32;20174;-72
2022/03/01 07:03:42;;;;;;;39.67;17.10;;;-0.80;99.90;;;;;;4362917;32;20225;-72
2022/03/01 07:06:11;;;;;;;35.17;16.37;;;-0.80;99.90;;;;;;4365466;32;20225;-72
2022/03/01 07:08:38;;;;;;;36.57;15.47;;;-0.70;99.90;;;;;;4353489;32;20249;-73
2022/03/01 07:11:05;;;;;;;35.27;15.63;;;-0.60;99.90;;;;;;4365890;32;20526;-71
2022/03/01 07:13:32;;;;;;;35.83;14.73;;;-0.60;99.90;;;;;;4376124;32;20194;-72
2022/03/01 07:15:58;;;;;;;35.93;15.87;;;-0.60;99.90;;;;;;4365819;32;20230;-72
2022/03/01 07:18:25;;;;;;;33.17;15.27;;;-0.50;99.90;;;;;;4376432;32;20164;-73
2022/03/01 07:20:52;;;;;;;40.13;15.00;;;-0.40;99.90;;;;;;4369375;32;20237;-72
2022/03/01 07:23:19;;;;;;;33.77;15.23;;;-0.40;99.90;;;;;;4425618;32;20591;-73
2022/03/01 07:25:46;;;;;;;31.03;13.53;;;-0.30;99.90;;;;;;4439899;32;20187;-73
2022/03/01 07:28:13;;;;;;;31.47;14.53;;;-0.30;99.90;;;;;;4426510;32;20257;-73
2022/03/01 07:30:39;;;;;;;34.83;15.43;;;-0.20;99.90;;;;;;4424805;32;20244;-71
2022/03/01 07:33:06;;;;;;;33.27;14.33;;;-0.10;99.90;;;;;;4425344;32;20193;-72
2022/03/01 07:35:33;;;;;;;32.93;14.67;;;0.00;99.90;;;;;;4424914;32;20204;-74
2022/03/01 07:38:00;;;;;;;32.50;14.20;;;0.10;99.90;;;;;;4439647;32;20189;-71
2022/03/01 07:40:27;;;;;;;32.20;14.33;;;0.20;99.90;;;;;;4439259;32;20222;-72
2022/03/01 07:42:55;;;;;;;31.80;14.07;;;0.20;99.90;;;;;;4438776;32;20174;-71
2022/03/01 07:45:22;;;;;;;32.30;15.03;;;0.30;99.90;;;;;;4426260;32;20563;-72
2022/03/01 07:47:50;;;;;;;32.97;15.13;;;0.30;99.90;;;;;;4439492;32;20462;-72
2022/03/01 07:50:17;;;;;;;30.77;14.80;;;0.40;99.90;;;;;;4425621;32;20182;-74
2022/03/01 07:52:44;;;;;;;31.30;13.53;;;0.40;99.90;;;;;;4426786;32;20234;-72
2022/03/01 07:55:11;;;;;;;33.57;14.10;;;0.50;99.90;;;;;;4426693;32;20253;-71
2022/03/01 07:57:39;;;;;;;31.77;14.17;;;0.60;99.90;;;;;;4424508;32;20256;-71
2022/03/01 08:00:09;;;;;;;31.07;14.30;;;0.70;99.90;;;;;;4440600;32;20154;-72
2022/03/01 08:02:40;;;;;;;32.83;13.07;;;0.90;99.90;;;;;;4440160;32;20194;-71
2022/03/01 08:05:09;;;;;;;30.17;13.53;;;0.90;99.90;;;;;;4424618;32;20431;-72
2022/03/01 08:07:47;;;;;;;31.10;12.73;;;1.00;99.90;;;;;;4413861;32;20198;-71
2022/03/01 08:10:14;;;;;;;28.47;12.93;;;1.00;99.90;;;;;;4426173;32;20240;-70
2022/03/01 08:12:41;;;;;;;35.43;13.83;;;1.10;99.90;;;;;;4430968;32;20202;-68
2022/03/01 08:15:09;;;;;;;35.77;14.47;;;1.30;99.90;;;;;;4438033;32;20568;-69
2022/03/01 08:17:36;;;;;;;36.10;14.73;;;1.30;99.90;;;;;;4437107;32;20570;-68
2022/03/01 08:20:03;;;;;;;32.63;14.53;;;1.70;99.90;;;;;;4437649;32;20189;-69
2022/03/01 08:22:30;;;;;;;35.20;14.57;;;2.20;99.90;;;;;;4438098;32;20201;-69
2022/03/01 08:24:56;;;;;;;32.70;14.50;;;2.70;99.90;;;;;;4440360;32;20197;-68
2022/03/01 08:27:23;;;;;;;35.87;15.50;;;3.30;99.90;;;;;;4439061;32;20472;-68
2022/03/01 08:29:52;;;;;;;34.10;14.83;;;3.70;99.90;;;;;;4437595;32;20178;-69
2022/03/01 08:32:19;;;;;;;32.37;13.60;;;3.90;99.90;;;;;;4440467;32;20193;-68
2022/03/01 08:34:46;;;;;;;29.80;13.23;;;4.30;99.90;;;;;;4443685;32;20181;-68
2022/03/01 08:37:13;;;;;;;30.83;13.50;;;4.40;99.90;;;;;;4456796;32;20233;-69
2022/03/01 08:39:39;;;;;;;28.53;13.67;;;4.50;99.90;;;;;;4459099;32;20220;-68
2022/03/01 08:42:06;;;;;;;27.57;13.37;;;4.60;99.90;;;;;;4446655;32;20194;-68
2022/03/01 08:44:33;;;;;;;30.07;13.03;;;4.60;99.90;;;;;;4433931;32;20249;-65
2022/03/01 08:47:00;;;;;;;31.77;13.77;;;4.60;99.90;;;;;;4441297;32;20152;-67
2022/03/01 08:49:27;;;;;;;32.47;14.80;;;4.80;99.90;;;;;;4426912;32;20191;-67
2022/03/01 08:51:54;;;;;;;27.67;13.20;;;5.10;99.80;;;;;;4428908;32;20422;-67
2022/03/01 08:54:23;;;;;;;33.20;14.30;;;5.30;97.40;;;;;;4441166;32;20161;-67
2022/03/01 08:56:50;;;;;;;33.43;14.43;;;5.40;96.20;;;;;;4440848;32;20153;-68
2022/03/01 08:59:17;;;;;;;28.13;12.93;;;5.60;95.80;;;;;;4428843;32;20232;-68
2022/03/01 09:01:44;;;;;;;32.43;14.20;;;5.70;94.90;;;;;;4427396;32;20171;-68
2022/03/01 09:04:12;;;;;;;33.50;14.83;;;6.00;94.20;;;;;;4426529;32;20179;-70
2022/03/01 09:06:39;;;;;;;27.37;13.77;;;6.30;93.80;;;;;;4440673;32;20171;-69
2022/03/01 09:09:06;;;;;;;33.20;14.10;;;6.60;91.10;;;;;;4440996;32;20183;-68
2022/03/01 09:11:33;;;;;;;29.57;14.67;;;6.90;89.20;;;;;;4427194;32;20180;-70
2022/03/01 09:14:00;;;;;;;30.00;13.07;;;7.10;87.20;;;;;;4428052;32;20227;-69
2022/03/01 09:16:27;;;;;;;21.40;10.23;;;7.00;83.30;;;;;;4428412;32;20472;-70
2022/03/01 09:18:54;;;;;;;21.50;10.30;;;7.00;81.50;;;;;;4426466;32;20178;-70
2022/03/01 09:21:21;;;;;;;29.20;12.80;;;7.30;77.40;;;;;;4426445;32;20203;-72
2022/03/01 09:23:47;;;;;;;31.77;14.30;;;7.40;77.50;;;;;;4428170;32;20213;-69
2022/03/01 09:26:15;;;;;;;28.30;13.47;;;7.60;76.80;;;;;;4431932;32;20246;-70
2022/03/01 09:28:42;;;;;;;31.43;14.00;;;8.00;76.30;;;;;;4427704;32;20193;-73
2022/03/01 09:31:10;;;;;;;27.83;12.30;;;8.30;78.70;;;;;;4428838;32;20220;-68
2022/03/01 09:33:42;;;;;;;24.03;11.13;;;8.30;73.50;;;;;;4441177;32;20165;-65
2022/03/01 09:36:11;;;;;;;24.67;10.90;;;8.10;83.60;;;;;;4426505;32;20237;-66
2022/03/01 09:38:38;;;;;;;21.57;10.87;;;8.30;82.60;;;;;;4442030;32;20511;-66
2022/03/01 09:41:06;;;;;;;20.33;10.63;;;8.20;82.70;;;;;;4441913;32;20151;-67
2022/03/01 09:43:37;;;;;;;27.20;12.60;;;8.20;81.00;;;;;;4427969;32;20257;-65
2022/03/01 09:46:05;;;;;;;23.27;11.50;;;8.30;80.80;;;;;;4427000;32;20197;-67
2022/03/01 09:48:38;;;;;;;18.80;8.70;;;8.30;83.50;;;;;;4427265;32;20209;-66
2022/03/01 09:51:06;;;;;;;21.00;9.07;;;8.50;76.50;;;;;;4427896;32;20249;-66
2022/03/01 09:53:36;;;;;;;20.47;9.30;;;8.90;76.10;;;;;;4427756;32;20216;-67
2022/03/01 09:56:04;;;;;;;18.57;7.57;;;9.10;72.40;;;;;;4427373;32;20174;-67
2022/03/01 09:58:31;;;;;;;18.17;9.10;;;8.70;74.50;;;;;;4428526;32;20205;-67
2022/03/01 10:00:58;;;;;;;19.93;9.10;;;8.80;73.20;;;;;;4440496;32;20167;-65
2022/03/01 10:03:28;;;;;;;18.53;8.83;;;8.90;75.50;;;;;;4441452;32;20258;-66
2022/03/01 10:06:12;;;;;;;20.87;8.63;;;9.30;74.50;;;;;;4427516;32;20193;-68
2022/03/01 10:08:39;;;;;;;15.17;8.00;;;9.60;72.30;;;;;;4441504;32;20205;-66
2022/03/01 10:11:06;;;;;;;17.37;8.13;;;9.50;66.90;;;;;;4427921;32;20457;-67
2022/03/01 10:13:37;;;;;;;18.30;8.40;;;9.70;70.50;;;;;;4426640;32;20190;-65
2022/03/01 10:16:15;;;;;;;16.13;8.00;;;10.00;67.80;;;;;;4440336;32;20199;-67
2022/03/01 10:18:52;;;;;;;17.33;7.50;;;10.50;67.60;;;;;;4446107;32;20372;-65
2022/03/01 10:21:21;;;;;;;17.83;8.27;;;10.80;65.60;;;;;;4428376;32;20221;-66
2022/03/01 10:23:51;;;;;;;17.43;8.23;;;11.00;61.80;;;;;;4427228;32;20291;-66
2022/03/01 10:26:25;;;;;;;16.60;7.77;;;11.20;61.30;;;;;;4439963;32;20181;-67
2022/03/01 10:28:54;;;;;;;15.17;8.17;;;11.20;61.90;;;;;;4425530;32;20196;-64
2022/03/01 10:31:25;;;;;;;14.63;7.40;;;11.30;60.60;;;;;;4425033;32;20248;-65
2022/03/01 10:34:02;;;;;;;15.73;7.20;;;11.50;60.30;;;;;;4425340;32;20178;-65
2022/03/01 10:36:49;;;;;;;17.00;7.43;;;11.70;58.90;;;;;;4426753;32;20209;-65
2022/03/01 10:39:25;;;;;;;15.77;7.93;;;11.60;57.40;;;;;;4440702;32;20201;-66
2022/03/01 10:41:51;;;;;;;15.07;7.07;;;11.70;57.80;;;;;;4425317;32;20269;-68
2022/03/01 10:44:20;;;;;;;15.00;8.00;;;11.50;60.10;;;;;;4425198;32;20210;-67
2022/03/01 10:46:57;;;;;;;13.13;6.80;;;11.90;58.50;;;;;;4441707;32;20429;-65
2022/03/01 10:49:31;;;;;;;14.57;6.83;;;11.90;57.60;;;;;;4425150;32;20490;-67
2022/03/01 10:52:05;;;;;;;13.10;6.20;;;12.10;57.40;;;;;;4440858;32;20142;-66
2022/03/01 10:54:37;;;;;;;14.73;6.73;;;12.30;54.70;;;;;;4426926;32;20279;-67
2022/03/01 10:57:09;;;;;;;13.17;6.80;;;12.40;54.80;;;;;;4441434;32;20372;-67
2022/03/01 10:59:38;;;;;;;14.93;6.60;;;12.60;55.30;;;;;;4427724;32;20201;-66
2022/03/01 11:02:06;;;;;;;12.70;6.20;;;12.90;55.50;;;;;;4440717;32;20142;-66
2022/03/01 11:04:34;;;;;;;11.17;6.07;;;13.20;53.40;;;;;;4439252;32;20452;-69
2022/03/01 11:07:03;;;;;;;10.47;6.03;;;13.40;51.00;;;;;;4439665;32;20376;-66
2022/03/01 11:09:32;;;;;;;14.20;6.63;;;13.40;52.00;;;;;;4438362;32;20173;-66
2022/03/01 11:12:00;;;;;;;14.90;6.70;;;13.80;52.20;;;;;;4437552;32;20267;-67
2022/03/01 11:15:03;;;;;;;11.77;6.47;;;13.70;49.60;;;;;;4437546;32;20177;-68
2022/03/01 11:17:46;;;;;;;11.80;6.60;;;13.50;50.00;;;;;;4437675;32;20179;-67
2022/03/01 11:20:18;;;;;;;13.40;6.43;;;13.80;51.50;;;;;;4439401;32;20189;-67
2022/03/01 11:22:57;;;;;;;14.27;6.67;;;13.50;49.40;;;;;;4439627;32;20139;-67
2022/03/01 11:25:29;;;;;;;12.37;6.57;;;13.40;50.50;;;;;;4437641;32;20182;-67
2022/03/01 11:28:05;;;;;;;12.37;6.40;;;13.80;50.20;;;;;;4438882;32;20178;-66
2022/03/01 11:30:36;;;;;;;14.87;6.67;;;14.40;49.70;;;;;;4439033;32;20216;-68
2022/03/01 11:33:03;;;;;;;13.40;6.20;;;14.60;47.10;;;;;;4438512;32;20167;-68
2022/03/01 11:35:33;;;;;;;11.73;6.40;;;14.70;48.60;;;;;;4437651;32;20459;-66
2022/03/01 11:38:02;;;;;;;12.30;6.10;;;14.50;47.20;;;;;;4437530;32;20170;-66
2022/03/01 11:40:40;;;;;;;12.03;6.17;;;14.70;46.60;;;;;;4437719;32;20166;-67
2022/03/01 11:43:13;;;;;;;12.43;6.13;;;15.10;44.70;;;;;;4437744;32;20201;-65
2022/03/01 11:45:46;;;;;;;10.70;5.50;;;15.20;45.00;;;;;;4439068;32;20190;-66
2022/03/01 11:48:17;;;;;;;10.33;6.00;;;15.40;45.90;;;;;;4439161;32;20468;-67
2022/03/01 11:50:46;;;;;;;13.50;6.50;;;15.50;43.40;;;;;;4434176;32;20182;-66
2022/03/01 11:53:16;;;;;;;12.97;6.77;;;15.30;44.40;;;;;;4424642;32;20233;-66
2022/03/01 11:55:45;;;;;;;12.50;6.43;;;15.60;44.70;;;;;;4426250;32;20208;-66
2022/03/01 11:58:14;;;;;;;13.50;6.17;;;16.30;41.90;;;;;;4424895;32;20245;-66
2022/03/01 12:00:42;;;;;;;11.40;5.90;;;17.10;41.40;;;;;;4436899;32;20391;-67
2022/03/01 12:03:12;;;;;;;12.07;6.13;;;18.00;40.50;;;;;;4439643;32;20238;-67
2022/03/01 12:05:40;;;;;;;10.50;6.10;;;18.50;38.20;;;;;;4454017;32;20531;-68
2022/03/01 12:08:12;;;;;;;12.90;6.57;;;18.50;37.40;;;;;;4454502;32;20142;-66
2022/03/01 12:11:10;;;;;;;12.40;6.70;;;18.40;37.60;;;;;;4441177;32;20170;-69
2022/03/01 12:13:43;;;;;;;10.10;6.03;;;19.00;37.50;;;;;;4442224;32;20186;-66
2022/03/01 12:16:26;;;;;;;9.70;5.57;;;19.00;36.30;;;;;;4458892;32;20371;-66
2022/03/01 12:19:08;;;;;;;11.37;5.60;;;19.40;36.50;;;;;;4429979;32;20166;-68
2022/03/01 12:21:36;;;;;;;11.10;5.77;;;19.60;34.80;;;;;;4444129;32;20521;-67
2022/03/01 12:24:04;;;;;;;11.03;5.90;;;19.70;34.80;;;;;;4458087;32;20535;-67
2022/03/01 12:26:42;;;;;;;10.23;5.80;;;19.30;35.60;;;;;;4443974;32;20182;-68
2022/03/01 12:29:10;;;;;;;9.13;5.67;;;19.80;35.80;;;;;;4443330;32;20201;-68
2022/03/01 12:31:37;;;;;;;10.47;5.67;;;20.40;34.10;;;;;;4444434;32;20192;-69
2022/03/01 12:34:09;;;;;;;11.60;5.77;;;20.50;33.30;;;;;;4442432;32;20208;-69
2022/03/01 12:36:40;;;;;;;10.00;5.80;;;20.90;33.50;;;;;;4444206;32;20266;-70
2022/03/01 12:39:13;;;;;;;15.07;5.70;;;21.00;32.60;;;;;;4436458;32;20197;-69